createdAt,value
2023-05-25T00:00:27.240Z,0.00
2023-05-25T00:01:27.223Z,0.00
2023-05-25T00:02:27.256Z,0.00
2023-05-25T00:03:27.273Z,0.00
2023-05-25T00:04:27.386Z,0.00
2023-05-25T00:05:27.216Z,0.00
2023-05-25T00:06:27.196Z,0.00
2023-05-25T00:07:27.186Z,0.00
2023-05-25T00:08:27.206Z,0.00
2023-05-25T00:09:27.174Z,0.00
2023-05-25T00:10:27.179Z,0.00
2023-05-25T00:11:27.177Z,0.00
2023-05-25T00:12:27.197Z,0.00
2023-05-25T00:13:27.162Z,0.00
2023-05-25T00:14:27.132Z,0.00
2023-05-25T00:15:27.137Z,0.00
2023-05-25T00:16:27.139Z,0.00
2023-05-25T00:17:27.147Z,0.00
2023-05-25T00:18:27.124Z,0.00
2023-05-25T00:19:27.090Z,0.00
2023-05-25T00:20:27.188Z,0.00
2023-05-25T00:21:27.089Z,0.00
2023-05-25T00:22:27.074Z,0.00
2023-05-25T00:23:27.053Z,0.00
2023-05-25T00:24:27.072Z,0.00
2023-05-25T00:25:27.038Z,0.00
2023-05-25T00:26:27.054Z,0.00
2023-05-25T00:27:27.031Z,0.00
2023-05-25T00:28:27.094Z,0.00
2023-05-25T00:29:27.038Z,0.00
2023-05-25T00:30:26.987Z,0.00
2023-05-25T00:31:27.077Z,0.00
2023-05-25T00:32:27.088Z,0.00
2023-05-25T00:33:26.988Z,0.00
2023-05-25T00:34:26.987Z,0.00
2023-05-25T00:35:27.988Z,0.00
2023-05-25T00:36:26.979Z,0.00
2023-05-25T00:37:27.958Z,0.00
2023-05-25T00:38:26.986Z,0.00
2023-05-25T00:39:26.962Z,0.00
2023-05-25T00:40:26.938Z,0.00
2023-05-25T00:41:26.926Z,0.00
2023-05-25T00:42:26.914Z,0.00
2023-05-25T00:43:26.893Z,0.00
2023-05-25T00:44:26.942Z,0.00
2023-05-25T00:45:26.907Z,0.00
2023-05-25T00:46:26.932Z,0.00
2023-05-25T00:47:26.948Z,0.00
2023-05-25T00:48:26.880Z,0.00
2023-05-25T00:49:27.567Z,0.00
2023-05-25T00:50:26.842Z,0.00
2023-05-25T00:51:26.830Z,0.00
2023-05-25T00:52:26.877Z,0.00
2023-05-25T00:53:26.820Z,0.00
2023-05-25T00:54:26.860Z,0.00
2023-05-25T00:55:26.810Z,0.00
2023-05-25T00:56:26.815Z,0.00
2023-05-25T00:57:26.828Z,0.00
2023-05-25T00:58:26.779Z,0.00
2023-05-25T00:59:26.793Z,0.00
2023-05-25T01:00:26.812Z,0.00
2023-05-25T01:01:26.806Z,0.00
2023-05-25T01:02:26.844Z,0.00
2023-05-25T01:03:26.905Z,0.00
2023-05-25T01:04:26.749Z,0.00
2023-05-25T01:05:26.747Z,0.00
2023-05-25T01:06:26.753Z,0.00
2023-05-25T01:07:26.709Z,0.00
2023-05-25T01:08:26.755Z,0.00
2023-05-25T01:09:26.724Z,0.00
2023-05-25T01:10:26.726Z,0.00
2023-05-25T01:11:26.726Z,0.00
2023-05-25T01:12:26.683Z,0.00
2023-05-25T01:13:26.717Z,0.00
2023-05-25T01:14:26.677Z,0.00
2023-05-25T01:15:26.670Z,0.00
2023-05-25T01:16:26.736Z,0.00
2023-05-25T01:17:26.710Z,0.00
2023-05-25T01:18:26.653Z,0.00
2023-05-25T01:19:26.692Z,0.00
2023-05-25T01:20:26.659Z,0.00
2023-05-25T01:21:26.619Z,0.00
2023-05-25T01:22:27.388Z,0.00
2023-05-25T01:23:27.095Z,0.00
2023-05-25T01:24:26.594Z,0.00
2023-05-25T01:25:26.645Z,0.00
2023-05-25T01:26:26.602Z,0.00
2023-05-25T01:27:26.586Z,0.00
2023-05-25T01:28:27.283Z,0.00
2023-05-25T01:29:26.585Z,0.00
2023-05-25T01:31:00.191Z,0.00
2023-05-25T01:31:26.547Z,0.00
2023-05-25T01:33:00.156Z,0.00
2023-05-25T01:33:26.568Z,0.00
2023-05-25T01:34:26.494Z,0.00
2023-05-25T01:35:26.591Z,0.00
2023-05-25T01:36:26.496Z,0.00
2023-05-25T01:37:26.486Z,0.00
2023-05-25T01:38:27.522Z,0.00
2023-05-25T01:39:26.534Z,0.00
2023-05-25T01:40:26.486Z,0.00
2023-05-25T01:41:26.457Z,0.00
2023-05-25T01:42:26.500Z,0.00
2023-05-25T01:43:26.445Z,0.00
2023-05-25T01:44:26.469Z,0.00
2023-05-25T01:45:26.475Z,0.00
2023-05-25T01:46:26.463Z,0.00
2023-05-25T01:47:26.516Z,0.00
2023-05-25T01:48:26.389Z,0.00
2023-05-25T01:49:26.399Z,0.00
2023-05-25T01:50:26.439Z,0.00
2023-05-25T01:51:26.397Z,0.00
2023-05-25T01:52:26.438Z,0.00
2023-05-25T01:53:26.410Z,0.00
2023-05-25T01:54:26.394Z,0.00
2023-05-25T01:55:26.390Z,0.00
2023-05-25T01:56:26.364Z,0.00
2023-05-25T01:57:26.344Z,0.00
2023-05-25T01:58:26.352Z,0.00
2023-05-25T01:59:26.344Z,0.00
2023-05-25T02:00:26.362Z,0.00
2023-05-25T02:01:26.364Z,0.00
2023-05-25T02:02:26.349Z,0.00
2023-05-25T02:03:26.310Z,0.00
2023-05-25T02:04:26.428Z,0.00
2023-05-25T02:05:26.282Z,0.00
2023-05-25T02:06:26.295Z,0.00
2023-05-25T02:07:26.265Z,0.00
2023-05-25T02:08:26.276Z,0.00
2023-05-25T02:09:26.275Z,0.00
2023-05-25T02:10:26.257Z,0.00
2023-05-25T02:11:26.294Z,0.00
2023-05-25T02:12:26.252Z,0.00
2023-05-25T02:13:26.241Z,0.00
2023-05-25T02:14:26.860Z,0.00
2023-05-25T02:15:26.216Z,0.00
2023-05-25T02:16:26.238Z,0.00
2023-05-25T02:17:26.248Z,0.00
2023-05-25T02:18:26.218Z,0.00
2023-05-25T02:19:26.266Z,0.00
2023-05-25T02:20:26.305Z,0.00
2023-05-25T02:21:26.167Z,0.00
2023-05-25T02:22:26.153Z,0.00
2023-05-25T02:23:26.173Z,0.00
2023-05-25T02:24:26.152Z,0.00
2023-05-25T02:25:26.151Z,0.00
2023-05-25T02:26:26.127Z,0.00
2023-05-25T02:27:26.124Z,0.00
2023-05-25T02:28:26.135Z,0.00
2023-05-25T02:29:26.105Z,0.00
2023-05-25T02:30:26.083Z,0.00
2023-05-25T02:31:26.196Z,0.00
2023-05-25T02:32:26.113Z,0.00
2023-05-25T02:33:26.103Z,0.00
2023-05-25T02:34:26.090Z,0.00
2023-05-25T02:35:26.059Z,0.00
2023-05-25T02:36:26.054Z,0.00
2023-05-25T02:37:26.036Z,0.00
2023-05-25T02:38:26.060Z,0.00
2023-05-25T02:39:26.087Z,0.00
2023-05-25T02:40:26.023Z,0.00
2023-05-25T02:41:26.988Z,0.00
2023-05-25T02:42:26.018Z,0.00
2023-05-25T02:43:26.025Z,0.00
2023-05-25T02:44:26.002Z,0.00
2023-05-25T02:45:26.035Z,0.00
2023-05-25T02:46:26.011Z,0.00
2023-05-25T02:47:26.019Z,0.00
2023-05-25T02:48:25.961Z,0.00
2023-05-25T02:49:26.013Z,0.00
2023-05-25T02:50:26.089Z,0.00
2023-05-25T02:51:25.948Z,0.00
2023-05-25T02:52:25.942Z,0.00
2023-05-25T02:53:25.933Z,0.00
2023-05-25T02:54:25.985Z,0.00
2023-05-25T02:55:25.934Z,0.00
2023-05-25T02:56:25.921Z,0.00
2023-05-25T02:57:25.960Z,0.00
2023-05-25T02:58:25.891Z,0.00
2023-05-25T02:59:26.545Z,0.00
2023-05-25T03:00:25.913Z,0.00
2023-05-25T03:01:26.104Z,0.00
2023-05-25T03:02:26.039Z,0.00
2023-05-25T03:03:25.930Z,0.00
2023-05-25T03:04:25.841Z,0.00
2023-05-25T03:05:25.875Z,0.00
2023-05-25T03:06:25.838Z,5.62
2023-05-25T03:07:25.821Z,5.62
2023-05-25T03:08:25.955Z,5.62
2023-05-25T03:09:25.812Z,5.62
2023-05-25T03:10:25.792Z,5.62
2023-05-25T03:11:25.813Z,5.62
2023-05-25T03:12:25.835Z,5.62
2023-05-25T03:13:25.795Z,11.25
2023-05-25T03:14:25.798Z,11.25
2023-05-25T03:15:25.794Z,11.25
2023-05-25T03:16:25.824Z,11.25
2023-05-25T03:17:25.746Z,11.25
2023-05-25T03:18:25.740Z,16.88
2023-05-25T03:19:25.770Z,16.88
2023-05-25T03:20:25.736Z,16.88
2023-05-25T03:21:25.738Z,22.50
2023-05-25T03:22:25.785Z,22.50
2023-05-25T03:23:25.693Z,22.50
2023-05-25T03:24:25.713Z,28.12
2023-05-25T03:25:25.683Z,28.12
2023-05-25T03:26:25.665Z,33.75
2023-05-25T03:27:25.706Z,33.75
2023-05-25T03:28:25.656Z,33.75
2023-05-25T03:29:25.648Z,39.38
2023-05-25T03:30:25.659Z,39.38
2023-05-25T03:31:25.663Z,45.00
2023-05-25T03:32:25.712Z,45.00
2023-05-25T03:33:25.609Z,50.62
2023-05-25T03:34:25.634Z,56.25
2023-05-25T03:35:25.591Z,56.25
2023-05-25T03:36:25.585Z,61.88
2023-05-25T03:37:25.601Z,73.12
2023-05-25T03:38:25.583Z,78.75
2023-05-25T03:39:25.551Z,95.62
2023-05-25T03:40:25.572Z,101.25
2023-05-25T03:41:25.580Z,101.25
2023-05-25T03:42:25.589Z,112.50
2023-05-25T03:43:25.593Z,118.12
2023-05-25T03:44:25.548Z,123.75
2023-05-25T03:45:25.564Z,135.00
2023-05-25T03:46:25.613Z,146.25
2023-05-25T03:47:25.551Z,163.12
2023-05-25T04:03:13.679Z,309.38
2023-05-25T04:04:13.686Z,320.62
2023-05-25T04:05:13.576Z,309.38
2023-05-25T04:06:13.546Z,270.00
2023-05-25T04:07:13.608Z,202.50
2023-05-25T04:08:13.542Z,185.62
2023-05-25T04:09:14.673Z,157.50
2023-05-25T04:10:14.750Z,146.25
2023-05-25T04:11:14.666Z,163.12
2023-05-25T04:12:14.642Z,157.50
2023-05-25T04:13:14.668Z,151.88
2023-05-25T04:14:14.635Z,140.62
2023-05-25T04:15:14.679Z,135.00
2023-05-25T04:16:14.852Z,129.38
2023-05-25T04:17:14.621Z,112.50
2023-05-25T04:18:14.654Z,95.62
2023-05-25T04:19:14.591Z,84.38
2023-05-25T04:20:14.633Z,90.00
2023-05-25T04:21:14.572Z,95.62
2023-05-25T04:22:14.622Z,95.62
2023-05-25T04:23:14.590Z,78.75
2023-05-25T04:24:14.616Z,78.75
2023-05-25T04:25:14.603Z,78.75
2023-05-25T04:26:14.572Z,78.75
2023-05-25T04:27:14.597Z,78.75
2023-05-25T04:28:14.522Z,84.38
2023-05-25T04:29:14.520Z,90.00
2023-05-25T04:30:14.511Z,90.00
2023-05-25T04:31:14.571Z,90.00
2023-05-25T04:32:14.555Z,95.62
2023-05-25T04:33:14.539Z,95.62
2023-05-25T04:34:14.507Z,95.62
2023-05-25T04:35:14.515Z,95.62
2023-05-25T04:36:15.357Z,95.62
2023-05-25T04:37:14.531Z,95.62
2023-05-25T04:38:14.511Z,95.62
2023-05-25T04:39:14.454Z,90.00
2023-05-25T04:40:14.529Z,90.00
2023-05-25T04:41:14.473Z,90.00
2023-05-25T04:42:14.460Z,84.38
2023-05-25T04:43:14.448Z,90.00
2023-05-25T04:44:14.398Z,90.00
2023-05-25T04:45:14.423Z,95.62
2023-05-25T04:46:14.469Z,95.62
2023-05-25T04:47:14.484Z,95.62
2023-05-25T04:48:14.404Z,95.62
2023-05-25T04:49:14.447Z,90.00
2023-05-25T04:50:15.197Z,90.00
2023-05-25T04:51:14.679Z,90.00
2023-05-25T04:52:14.403Z,106.88
2023-05-25T04:53:14.403Z,118.12
2023-05-25T04:54:14.414Z,118.12
2023-05-25T04:55:15.097Z,112.50
2023-05-25T04:56:15.321Z,112.50
2023-05-25T04:57:14.327Z,123.75
2023-05-25T04:58:14.763Z,129.38
2023-05-25T04:59:14.485Z,140.62
2023-05-25T05:00:14.319Z,146.25
2023-05-25T05:01:14.361Z,140.62
2023-05-25T05:02:14.285Z,140.62
2023-05-25T05:03:14.297Z,146.25
2023-05-25T05:04:14.291Z,146.25
2023-05-25T05:05:14.288Z,146.25
2023-05-25T05:06:14.252Z,146.25
2023-05-25T05:07:14.263Z,163.12
2023-05-25T05:08:14.232Z,180.00
2023-05-25T05:09:14.234Z,180.00
2023-05-25T05:10:14.254Z,185.62
2023-05-25T05:11:14.214Z,174.38
2023-05-25T05:12:14.404Z,157.50
2023-05-25T05:13:14.200Z,151.88
2023-05-25T05:14:14.200Z,151.88
2023-05-25T05:15:14.217Z,157.50
2023-05-25T05:16:14.183Z,163.12
2023-05-25T05:17:14.183Z,157.50
2023-05-25T05:18:14.161Z,157.50
2023-05-25T05:19:14.158Z,185.62
2023-05-25T05:20:14.230Z,180.00
2023-05-25T05:21:14.153Z,191.25
2023-05-25T05:22:14.154Z,213.75
2023-05-25T05:23:14.159Z,236.25
2023-05-25T05:24:14.122Z,236.25
2023-05-25T05:25:14.177Z,213.75
2023-05-25T05:26:14.080Z,191.25
2023-05-25T05:27:14.155Z,191.25
2023-05-25T05:28:14.141Z,202.50
2023-05-25T05:29:14.123Z,196.88
2023-05-25T05:30:14.169Z,196.88
2023-05-25T05:31:14.093Z,202.50
2023-05-25T05:32:14.148Z,213.75
2023-05-25T05:33:14.114Z,219.38
2023-05-25T05:34:14.017Z,213.75
2023-05-25T05:35:14.036Z,213.75
2023-05-25T05:36:14.060Z,241.88
2023-05-25T05:37:14.004Z,286.88
2023-05-25T05:38:14.054Z,337.50
2023-05-25T05:39:14.035Z,421.88
2023-05-25T05:40:13.992Z,573.75
2023-05-25T05:41:14.155Z,815.62
2023-05-25T05:42:13.969Z,765.00
2023-05-25T05:43:13.980Z,826.88
2023-05-25T05:44:13.971Z,810.00
2023-05-25T05:45:14.006Z,720.00
2023-05-25T05:46:14.037Z,568.12
2023-05-25T05:47:13.950Z,500.62
2023-05-25T05:48:13.956Z,500.62
2023-05-25T05:49:13.968Z,523.12
2023-05-25T05:50:13.932Z,652.50
2023-05-25T05:51:13.881Z,826.88
2023-05-25T05:52:13.925Z,939.38
2023-05-25T05:53:13.943Z,911.25
2023-05-25T05:54:14.021Z,776.25
2023-05-25T05:55:13.882Z,646.88
2023-05-25T05:56:13.875Z,641.25
2023-05-25T05:57:13.988Z,545.62
2023-05-25T05:58:13.833Z,466.88
2023-05-25T05:59:13.834Z,416.25
2023-05-25T06:00:13.896Z,399.38
2023-05-25T06:01:13.918Z,410.62
2023-05-25T06:02:13.969Z,427.50
2023-05-25T06:03:13.900Z,410.62
2023-05-25T06:04:13.823Z,495.00
2023-05-25T06:05:13.879Z,534.38
2023-05-25T06:06:13.777Z,495.00
2023-05-25T06:07:13.782Z,461.25
2023-05-25T06:08:13.811Z,461.25
2023-05-25T06:09:13.913Z,511.88
2023-05-25T06:10:13.775Z,461.25
2023-05-25T06:11:15.611Z,433.12
2023-05-25T06:12:13.760Z,399.38
2023-05-25T06:13:13.741Z,410.62
2023-05-25T06:14:13.767Z,466.88
2023-05-25T06:15:13.736Z,500.62
2023-05-25T06:16:13.751Z,511.88
2023-05-25T06:17:13.796Z,472.50
2023-05-25T06:18:13.753Z,472.50
2023-05-25T06:19:13.715Z,461.25
2023-05-25T06:20:13.827Z,478.12
2023-05-25T06:21:13.738Z,472.50
2023-05-25T06:22:13.711Z,590.62
2023-05-25T06:23:13.633Z,669.38
2023-05-25T06:24:13.670Z,607.50
2023-05-25T06:25:13.644Z,663.75
2023-05-25T06:26:13.711Z,933.75
2023-05-25T06:27:13.595Z,832.50
2023-05-25T06:28:13.617Z,675.00
2023-05-25T06:29:16.075Z,697.50
2023-05-25T06:30:13.882Z,883.12
2023-05-25T06:31:13.610Z,1231.88
2023-05-25T06:32:13.575Z,1147.50
2023-05-25T06:33:13.637Z,832.50
2023-05-25T06:34:13.593Z,1485.00
2023-05-25T06:35:14.338Z,1546.88
2023-05-25T06:36:13.565Z,1181.25
2023-05-25T06:37:13.539Z,1181.25
2023-05-25T06:38:13.554Z,1676.25
2023-05-25T06:39:13.521Z,1631.25
2023-05-25T06:40:13.549Z,1704.38
2023-05-25T06:41:13.512Z,1957.50
2023-05-25T06:42:13.512Z,3555.00
2023-05-25T06:43:13.516Z,2722.50
2023-05-25T06:44:13.483Z,3701.25
2023-05-25T06:45:14.532Z,3723.75
2023-05-25T06:46:13.512Z,3600.00
2023-05-25T06:47:13.487Z,3791.25
2023-05-25T06:48:13.508Z,3954.38
2023-05-25T06:49:13.465Z,4016.25
2023-05-25T06:51:13.461Z,4123.12
2023-05-25T06:52:13.456Z,4275.00
2023-05-25T06:53:13.441Z,2773.12
2023-05-25T06:54:13.423Z,4275.00
2023-05-25T06:55:13.426Z,3684.38
2023-05-25T06:56:13.433Z,3459.38
2023-05-25T06:57:13.401Z,4449.38
2023-05-25T06:58:13.411Z,4466.25
2023-05-25T06:59:13.475Z,4432.50
2023-05-25T07:00:13.383Z,4010.62
2023-05-25T07:01:13.372Z,4365.00
2023-05-25T07:02:13.342Z,3526.88
2023-05-25T07:03:13.325Z,4280.62
2023-05-25T07:04:13.322Z,4320.00
2023-05-25T07:05:13.404Z,4106.25
2023-05-25T07:06:14.357Z,4466.25
2023-05-25T07:07:13.314Z,2019.38
2023-05-25T07:08:13.330Z,2553.75
2023-05-25T07:09:13.334Z,1884.38
2023-05-25T07:10:13.267Z,1968.75
2023-05-25T07:11:13.272Z,3853.12
2023-05-25T07:12:13.264Z,4252.50
2023-05-25T07:13:13.285Z,4387.50
2023-05-25T07:14:13.870Z,4308.75
2023-05-25T07:15:13.294Z,4342.50
2023-05-25T07:16:13.302Z,4291.88
2023-05-25T07:17:13.270Z,4190.62
2023-05-25T07:18:13.211Z,4134.38
2023-05-25T07:19:13.225Z,4151.25
2023-05-25T07:20:13.332Z,4173.75
2023-05-25T07:21:13.280Z,4134.38
2023-05-25T07:22:13.236Z,3976.88
2023-05-25T07:23:13.196Z,4033.12
2023-05-25T07:24:13.195Z,4145.62
2023-05-25T07:25:13.271Z,4128.75
2023-05-25T07:26:13.188Z,4162.50
2023-05-25T07:27:13.177Z,4078.12
2023-05-25T07:28:14.041Z,4044.38
2023-05-25T07:29:13.140Z,4055.62
2023-05-25T07:30:13.163Z,4044.38
2023-05-25T07:31:13.167Z,4140.00
2023-05-25T07:32:13.152Z,4106.25
2023-05-25T07:33:13.178Z,4095.00
2023-05-25T07:34:13.090Z,4106.25
2023-05-25T07:35:13.091Z,4095.00
2023-05-25T07:36:13.081Z,4055.62
2023-05-25T07:37:13.056Z,4089.38
2023-05-25T07:38:13.094Z,4100.62
2023-05-25T07:39:13.800Z,4055.62
2023-05-25T07:40:13.046Z,4066.88
2023-05-25T07:41:13.099Z,4066.88
2023-05-25T07:42:13.051Z,4055.62
2023-05-25T07:43:13.022Z,4100.62
2023-05-25T07:44:13.070Z,4038.75
2023-05-25T07:45:13.013Z,3937.50
2023-05-25T07:46:13.006Z,3960.00
2023-05-25T07:47:13.155Z,4038.75
2023-05-25T07:48:13.018Z,3937.50
2023-05-25T07:49:12.992Z,3853.12
2023-05-25T07:50:12.956Z,3870.00
2023-05-25T07:51:12.977Z,3841.88
2023-05-25T07:52:12.964Z,3836.25
2023-05-25T07:53:12.971Z,3937.50
2023-05-25T07:54:12.951Z,3937.50
2023-05-25T07:55:12.986Z,3841.88
2023-05-25T07:56:13.734Z,3853.12
2023-05-25T07:57:12.917Z,3841.88
2023-05-25T07:58:12.908Z,3751.88
2023-05-25T07:59:12.909Z,3746.25
2023-05-25T08:00:13.559Z,3656.25
2023-05-25T08:01:12.892Z,3628.12
2023-05-25T08:02:12.908Z,3476.25
2023-05-25T08:03:12.982Z,2688.75
2023-05-25T08:04:13.794Z,1771.88
2023-05-25T08:05:13.013Z,1541.25
2023-05-25T08:06:12.865Z,1485.00
2023-05-25T08:07:12.876Z,1428.75
2023-05-25T08:08:12.838Z,1389.38
2023-05-25T08:09:12.833Z,1372.50
2023-05-25T08:10:12.848Z,1361.25
2023-05-25T08:11:12.811Z,1344.38
2023-05-25T08:12:37.983Z,1333.12
2023-05-25T08:13:15.346Z,1327.50
2023-05-25T08:14:12.801Z,1327.50
2023-05-25T08:15:12.844Z,1333.12
2023-05-25T08:16:13.393Z,1338.75
2023-05-25T08:17:12.828Z,1355.62
2023-05-25T08:18:12.801Z,1383.75
2023-05-25T08:19:13.002Z,1378.12
2023-05-25T08:20:12.825Z,1378.12
2023-05-25T08:21:12.722Z,1383.75
2023-05-25T08:22:12.767Z,1423.12
2023-05-25T08:23:12.784Z,1434.38
2023-05-25T08:24:12.726Z,1440.00
2023-05-25T08:25:12.705Z,1423.12
2023-05-25T08:27:13.721Z,1440.00
2023-05-25T08:28:12.671Z,1411.88
2023-05-25T08:29:12.706Z,1428.75
2023-05-25T08:30:12.687Z,1451.25
2023-05-25T08:31:12.793Z,1434.38
2023-05-25T08:32:12.695Z,1372.50
2023-05-25T08:33:12.875Z,1383.75
2023-05-25T08:34:12.633Z,1378.12
2023-05-25T08:35:12.651Z,1327.50
2023-05-25T08:36:12.643Z,1305.00
2023-05-25T08:37:12.606Z,1310.62
2023-05-25T08:38:12.611Z,1310.62
2023-05-25T08:39:12.627Z,1299.38
2023-05-25T08:40:12.585Z,1299.38
2023-05-25T08:41:12.600Z,1288.12
2023-05-25T08:42:12.586Z,1276.88
2023-05-25T08:43:12.588Z,1276.88
2023-05-25T08:44:12.568Z,1282.50
2023-05-25T08:45:26.412Z,1282.50
2023-05-25T08:46:14.580Z,1310.62
2023-05-25T08:47:12.526Z,1316.25
2023-05-25T08:48:13.600Z,1299.38
2023-05-25T08:49:12.777Z,1293.75
2023-05-25T08:50:12.528Z,1276.88
2023-05-25T08:51:12.498Z,1276.88
2023-05-25T08:52:12.518Z,1271.25
2023-05-25T08:53:12.472Z,1271.25
2023-05-25T08:54:12.502Z,1276.88
2023-05-25T08:55:12.505Z,1288.12
2023-05-25T08:56:12.452Z,1299.38
2023-05-25T08:57:12.496Z,1305.00
2023-05-25T08:58:12.416Z,1305.00
2023-05-25T08:59:12.465Z,1288.12
2023-05-25T09:00:12.461Z,1271.25
2023-05-25T09:01:12.436Z,1271.25
2023-05-25T09:02:12.482Z,1271.25
2023-05-25T09:03:12.594Z,1276.88
2023-05-25T09:04:12.417Z,1282.50
2023-05-25T09:05:12.491Z,1299.38
2023-05-25T09:06:12.382Z,1299.38
2023-05-25T09:07:12.451Z,1288.12
2023-05-25T09:08:12.893Z,1310.62
2023-05-25T09:09:12.350Z,1288.12
2023-05-25T09:10:12.480Z,1299.38
2023-05-25T09:11:46.367Z,1288.12
2023-05-25T09:12:12.443Z,883.12
